sensor_id;sensor_type;location;lat;lon;timestamp;pressure;altitude;pressure_sealevel;temperature;humidity
78890;BME280;68279;48.964;14.502;2023-03-19T00:02:18;96836.81;;;0.43;83.42
78890;BME280;68279;48.964;14.502;2023-03-19T00:04:45;96846.81;;;0.53;82.62
78890;BME280;68279;48.964;14.502;2023-03-19T00:07:13;96852.25;;;0.40;82.81
78890;BME280;68279;48.964;14.502;2023-03-19T00:09:39;96851.50;;;0.14;83.57
78890;BME280;68279;48.964;14.502;2023-03-19T00:12:05;96846.25;;;0.14;84.23
78890;BME280;68279;48.964;14.502;2023-03-19T00:14:33;96846.41;;;0.01;83.07
78890;BME280;68279;48.964;14.502;2023-03-19T00:16:58;96842.50;;;-0.15;83.47
78890;BME280;68279;48.964;14.502;2023-03-19T00:19:24;96843.81;;;-0.24;84.10
78890;BME280;68279;48.964;14.502;2023-03-19T00:21:50;96841.59;;;-0.27;83.45
78890;BME280;68279;48.964;14.502;2023-03-19T00:24:15;96844.88;;;-0.32;84.14
78890;BME280;68279;48.964;14.502;2023-03-19T00:26:42;96842.25;;;-0.32;84.57
78890;BME280;68279;48.964;14.502;2023-03-19T00:29:08;96842.41;;;-0.26;84.75
78890;BME280;68279;48.964;14.502;2023-03-19T00:31:34;96837.00;;;-0.32;86.01
78890;BME280;68279;48.964;14.502;2023-03-19T00:34:01;96839.88;;;-0.15;85.69
78890;BME280;68279;48.964;14.502;2023-03-19T00:36:27;96838.00;;;-0.08;85.99
78890;BME280;68279;48.964;14.502;2023-03-19T00:38:53;96835.56;;;-0.09;85.96
78890;BME280;68279;48.964;14.502;2023-03-19T00:41:20;96829.47;;;-0.28;85.56
78890;BME280;68279;48.964;14.502;2023-03-19T00:43:46;96838.44;;;-0.36;86.59
78890;BME280;68279;48.964;14.502;2023-03-19T00:46:12;96839.63;;;-0.57;85.86
78890;BME280;68279;48.964;14.502;2023-03-19T00:48:38;96843.09;;;-0.63;88.34
78890;BME280;68279;48.964;14.502;2023-03-19T00:51:06;96844.72;;;-0.37;87.51
78890;BME280;68279;48.964;14.502;2023-03-19T00:53:36;96845.16;;;-0.40;87.13
78890;BME280;68279;48.964;14.502;2023-03-19T00:56:04;96847.59;;;-0.45;87.27
78890;BME280;68279;48.964;14.502;2023-03-19T00:58:30;96842.28;;;-0.63;87.00
78890;BME280;68279;48.964;14.502;2023-03-19T01:00:55;96844.22;;;-0.77;84.88
78890;BME280;68279;48.964;14.502;2023-03-19T01:03:21;96837.63;;;-0.86;85.45
78890;BME280;68279;48.964;14.502;2023-03-19T01:05:48;96829.31;;;-0.83;86.28
78890;BME280;68279;48.964;14.502;2023-03-19T01:08:15;96836.75;;;-0.80;87.94
78890;BME280;68279;48.964;14.502;2023-03-19T01:10:41;96837.63;;;-0.86;86.41
78890;BME280;68279;48.964;14.502;2023-03-19T01:13:07;96843.84;;;-0.55;88.11
78890;BME280;68279;48.964;14.502;2023-03-19T01:15:40;96842.63;;;-0.28;87.23
78890;BME280;68279;48.964;14.502;2023-03-19T01:18:06;96831.16;;;-0.59;86.45
78890;BME280;68279;48.964;14.502;2023-03-19T01:20:32;96842.09;;;-0.93;86.47
78890;BME280;68279;48.964;14.502;2023-03-19T01:22:58;96842.56;;;-1.03;88.32
78890;BME280;68279;48.964;14.502;2023-03-19T01:25:24;96851.50;;;-0.79;88.71
78890;BME280;68279;48.964;14.502;2023-03-19T01:27:50;96853.59;;;-0.63;88.42
78890;BME280;68279;48.964;14.502;2023-03-19T01:30:16;96845.00;;;-0.70;87.88
78890;BME280;68279;48.964;14.502;2023-03-19T01:32:42;96840.72;;;-0.71;86.62
78890;BME280;68279;48.964;14.502;2023-03-19T01:35:08;96846.81;;;-0.70;89.51
78890;BME280;68279;48.964;14.502;2023-03-19T01:37:34;96851.63;;;-0.67;89.31
78890;BME280;68279;48.964;14.502;2023-03-19T01:40:00;96854.53;;;-0.82;89.39
78890;BME280;68279;48.964;14.502;2023-03-19T01:42:25;96851.84;;;-1.00;89.01
78890;BME280;68279;48.964;14.502;2023-03-19T01:44:51;96846.44;;;-1.05;89.10
78890;BME280;68279;48.964;14.502;2023-03-19T01:47:38;96845.69;;;-1.19;90.22
78890;BME280;68279;48.964;14.502;2023-03-19T01:50:18;96847.69;;;-1.15;90.56
78890;BME280;68279;48.964;14.502;2023-03-19T01:52:46;96839.41;;;-1.18;89.19
78890;BME280;68279;48.964;14.502;2023-03-19T01:55:12;96841.81;;;-1.10;88.67
78890;BME280;68279;48.964;14.502;2023-03-19T01:57:37;96834.44;;;-1.33;88.36
78890;BME280;68279;48.964;14.502;2023-03-19T02:00:09;96833.06;;;-1.42;88.95
78890;BME280;68279;48.964;14.502;2023-03-19T02:02:37;96818.13;;;-1.42;89.53
78890;BME280;68279;48.964;14.502;2023-03-19T02:05:13;96818.47;;;-1.25;89.57
78890;BME280;68279;48.964;14.502;2023-03-19T02:07:51;96816.03;;;-1.20;89.63
78890;BME280;68279;48.964;14.502;2023-03-19T02:10:18;96824.94;;;-1.27;88.67
78890;BME280;68279;48.964;14.502;2023-03-19T02:12:45;96824.16;;;-1.34;89.19
78890;BME280;68279;48.964;14.502;2023-03-19T02:15:11;96830.53;;;-1.55;90.50
78890;BME280;68279;48.964;14.502;2023-03-19T02:17:38;96831.63;;;-1.76;90.32
78890;BME280;68279;48.964;14.502;2023-03-19T02:20:12;96819.56;;;-1.90;90.87
78890;BME280;68279;48.964;14.502;2023-03-19T02:22:44;96824.78;;;-1.84;91.08
78890;BME280;68279;48.964;14.502;2023-03-19T02:25:39;96828.94;;;-1.69;92.59
78890;BME280;68279;48.964;14.502;2023-03-19T02:28:02;96825.81;;;-1.85;92.13
78890;BME280;68279;48.964;14.502;2023-03-19T02:30:31;96832.84;;;-1.85;92.02
78890;BME280;68279;48.964;14.502;2023-03-19T02:32:57;96831.00;;;-1.78;92.76
78890;BME280;68279;48.964;14.502;2023-03-19T02:35:24;96833.03;;;-1.80;91.68
78890;BME280;68279;48.964;14.502;2023-03-19T02:37:50;96836.34;;;-1.53;91.79
78890;BME280;68279;48.964;14.502;2023-03-19T02:40:21;96834.75;;;-1.54;91.15
78890;BME280;68279;48.964;14.502;2023-03-19T02:42:50;96832.09;;;-1.48;90.66
78890;BME280;68279;48.964;14.502;2023-03-19T02:45:15;96830.72;;;-1.50;90.14
78890;BME280;68279;48.964;14.502;2023-03-19T02:47:41;96834.75;;;-1.54;90.61
78890;BME280;68279;48.964;14.502;2023-03-19T02:50:08;96839.03;;;-1.66;89.54
78890;BME280;68279;48.964;14.502;2023-03-19T02:52:34;96833.84;;;-1.80;89.13
78890;BME280;68279;48.964;14.502;2023-03-19T02:55:01;96840.53;;;-1.97;89.72
78890;BME280;68279;48.964;14.502;2023-03-19T02:57:27;96845.16;;;-1.92;90.19
78890;BME280;68279;48.964;14.502;2023-03-19T02:59:53;96849.63;;;-2.00;91.03
78890;BME280;68279;48.964;14.502;2023-03-19T03:02:20;96851.03;;;-2.04;91.01
78890;BME280;68279;48.964;14.502;2023-03-19T03:04:46;96839.13;;;-2.00;90.73
78890;BME280;68279;48.964;14.502;2023-03-19T03:07:12;96847.59;;;-2.04;90.44
78890;BME280;68279;48.964;14.502;2023-03-19T03:09:38;96841.75;;;-2.06;90.35
78890;BME280;68279;48.964;14.502;2023-03-19T03:12:05;96848.00;;;-2.01;90.08
78890;BME280;68279;48.964;14.502;2023-03-19T03:14:33;96855.50;;;-2.11;90.09
78890;BME280;68279;48.964;14.502;2023-03-19T03:16:59;96859.34;;;-2.20;89.24
78890;BME280;68279;48.964;14.502;2023-03-19T03:19:25;96860.31;;;-2.21;89.57
78890;BME280;68279;48.964;14.502;2023-03-19T03:21:52;96858.72;;;-2.22;89.80
78890;BME280;68279;48.964;14.502;2023-03-19T03:24:18;96858.31;;;-2.19;90.38
78890;BME280;68279;48.964;14.502;2023-03-19T03:26:44;96852.88;;;-2.11;90.50
78890;BME280;68279;48.964;14.502;2023-03-19T03:29:10;96853.25;;;-2.14;90.38
78890;BME280;68279;48.964;14.502;2023-03-19T03:31:36;96859.94;;;-2.11;90.23
78890;BME280;68279;48.964;14.502;2023-03-19T03:34:03;96857.31;;;-2.18;89.89
78890;BME280;68279;48.964;14.502;2023-03-19T03:36:28;96858.91;;;-2.10;89.78
78890;BME280;68279;48.964;14.502;2023-03-19T03:38:54;96852.25;;;-2.13;89.70
78890;BME280;68279;48.964;14.502;2023-03-19T03:41:22;96851.66;;;-2.02;90.13
78890;BME280;68279;48.964;14.502;2023-03-19T03:43:47;96857.69;;;-2.01;90.08
78890;BME280;68279;48.964;14.502;2023-03-19T03:46:13;96848.19;;;-1.95;90.09
78890;BME280;68279;48.964;14.502;2023-03-19T03:48:39;96861.28;;;-1.95;89.63
78890;BME280;68279;48.964;14.502;2023-03-19T03:51:04;96861.50;;;-1.97;89.71
78890;BME280;68279;48.964;14.502;2023-03-19T03:53:30;96853.47;;;-2.02;89.46
78890;BME280;68279;48.964;14.502;2023-03-19T03:55:56;96849.56;;;-1.86;90.54
78890;BME280;68279;48.964;14.502;2023-03-19T03:58:21;96851.00;;;-1.90;90.23
78890;BME280;68279;48.964;14.502;2023-03-19T04:00:48;96854.00;;;-1.87;90.10
78890;BME280;68279;48.964;14.502;2023-03-19T04:03:14;96850.63;;;-2.07;89.12
78890;BME280;68279;48.964;14.502;2023-03-19T04:05:40;96852.25;;;-2.13;89.66
78890;BME280;68279;48.964;14.502;2023-03-19T04:08:06;96851.88;;;-2.16;90.79
78890;BME280;68279;48.964;14.502;2023-03-19T04:10:33;96851.66;;;-2.21;89.59
78890;BME280;68279;48.964;14.502;2023-03-19T04:13:01;96862.97;;;-2.34;90.43
78890;BME280;68279;48.964;14.502;2023-03-19T04:15:27;96863.56;;;-2.45;91.24
78890;BME280;68279;48.964;14.502;2023-03-19T04:17:52;96872.63;;;-2.61;91.47
78890;BME280;68279;48.964;14.502;2023-03-19T04:20:18;96877.03;;;-2.81;91.67
78890;BME280;68279;48.964;14.502;2023-03-19T04:22:44;96881.28;;;-2.67;91.28
78890;BME280;68279;48.964;14.502;2023-03-19T04:25:10;96874.84;;;-2.71;90.96
78890;BME280;68279;48.964;14.502;2023-03-19T04:27:36;96872.03;;;-2.63;90.87
78890;BME280;68279;48.964;14.502;2023-03-19T04:30:02;96868.81;;;-2.52;90.75
78890;BME280;68279;48.964;14.502;2023-03-19T04:32:27;96869.63;;;-2.51;91.09
78890;BME280;68279;48.964;14.502;2023-03-19T04:34:53;96866.38;;;-2.40;90.56
78890;BME280;68279;48.964;14.502;2023-03-19T04:37:18;96869.00;;;-2.34;90.20
78890;BME280;68279;48.964;14.502;2023-03-19T04:39:44;96869.81;;;-2.26;90.63
78890;BME280;68279;48.964;14.502;2023-03-19T04:42:10;96870.22;;;-2.30;89.82
78890;BME280;68279;48.964;14.502;2023-03-19T04:44:36;96871.41;;;-2.32;89.99
78890;BME280;68279;48.964;14.502;2023-03-19T04:47:09;96877.47;;;-2.32;89.71
78890;BME280;68279;48.964;14.502;2023-03-19T04:49:34;96883.31;;;-2.43;89.35
78890;BME280;68279;48.964;14.502;2023-03-19T04:52:01;96882.13;;;-2.47;89.84
78890;BME280;68279;48.964;14.502;2023-03-19T04:54:26;96885.34;;;-2.38;89.73
78890;BME280;68279;48.964;14.502;2023-03-19T04:56:52;96878.06;;;-2.43;90.80
78890;BME280;68279;48.964;14.502;2023-03-19T04:59:18;96870.41;;;-2.44;91.00
78890;BME280;68279;48.964;14.502;2023-03-19T05:01:44;96882.72;;;-2.45;90.13
78890;BME280;68279;48.964;14.502;2023-03-19T05:04:10;96877.88;;;-2.35;90.66
78890;BME280;68279;48.964;14.502;2023-03-19T05:06:36;96883.91;;;-2.34;89.88
78890;BME280;68279;48.964;14.502;2023-03-19T05:09:03;96878.50;;;-2.46;88.74
78890;BME280;68279;48.964;14.502;2023-03-19T05:11:29;96885.34;;;-2.38;91.50
78890;BME280;68279;48.964;14.502;2023-03-19T05:13:55;96884.31;;;-2.31;91.92
78890;BME280;68279;48.964;14.502;2023-03-19T05:16:21;96893.38;;;-2.33;92.26
78890;BME280;68279;48.964;14.502;2023-03-19T05:18:47;96889.38;;;-2.29;92.51
78890;BME280;68279;48.964;14.502;2023-03-19T05:21:14;96888.75;;;-2.18;92.26
78890;BME280;68279;48.964;14.502;2023-03-19T05:23:40;96885.09;;;-2.04;92.29
78890;BME280;68279;48.964;14.502;2023-03-19T05:26:06;96881.84;;;-1.92;91.47
78890;BME280;68279;48.964;14.502;2023-03-19T05:28:33;96880.63;;;-1.90;89.48
78890;BME280;68279;48.964;14.502;2023-03-19T05:30:58;96877.22;;;-1.90;89.23
78890;BME280;68279;48.964;14.502;2023-03-19T05:33:24;96869.50;;;-1.65;89.43
78890;BME280;68279;48.964;14.502;2023-03-19T05:35:50;96873.31;;;-1.68;88.89
78890;BME280;68279;48.964;14.502;2023-03-19T05:38:16;96871.47;;;-1.61;89.64
78890;BME280;68279;48.964;14.502;2023-03-19T05:40:42;96869.66;;;-1.60;89.93
78890;BME280;68279;48.964;14.502;2023-03-19T05:43:08;96871.69;;;-1.56;90.29
78890;BME280;68279;48.964;14.502;2023-03-19T05:45:35;96866.66;;;-1.64;90.02
78890;BME280;68279;48.964;14.502;2023-03-19T05:48:02;96873.34;;;-1.75;91.66
78890;BME280;68279;48.964;14.502;2023-03-19T05:50:28;96887.41;;;-1.56;91.52
78890;BME280;68279;48.964;14.502;2023-03-19T05:52:53;96881.06;;;-1.35;90.79
78890;BME280;68279;48.964;14.502;2023-03-19T05:55:20;96881.41;;;-1.18;90.12
78890;BME280;68279;48.964;14.502;2023-03-19T05:57:45;96887.84;;;-1.14;89.89
78890;BME280;68279;48.964;14.502;2023-03-19T06:00:22;96892.59;;;-0.98;89.58
78890;BME280;68279;48.964;14.502;2023-03-19T06:02:48;96902.81;;;-0.83;88.91
78890;BME280;68279;48.964;14.502;2023-03-19T06:05:16;96907.06;;;-0.82;88.58
78890;BME280;68279;48.964;14.502;2023-03-19T06:07:42;96899.97;;;-0.81;88.97
78890;BME280;68279;48.964;14.502;2023-03-19T06:10:08;96891.84;;;-0.73;89.05
78890;BME280;68279;48.964;14.502;2023-03-19T06:12:35;96891.63;;;-0.72;88.83
78890;BME280;68279;48.964;14.502;2023-03-19T06:15:01;96900.53;;;-0.73;89.23
78890;BME280;68279;48.964;14.502;2023-03-19T06:17:27;96910.81;;;-0.71;89.62
78890;BME280;68279;48.964;14.502;2023-03-19T06:19:52;96918.09;;;-0.67;89.06
78890;BME280;68279;48.964;14.502;2023-03-19T06:22:19;96916.81;;;-0.58;88.45
78890;BME280;68279;48.964;14.502;2023-03-19T06:24:44;96923.91;;;-0.33;87.53
78890;BME280;68279;48.964;14.502;2023-03-19T06:27:17;96926.56;;;-0.33;87.54
78890;BME280;68279;48.964;14.502;2023-03-19T06:29:45;96925.84;;;-0.22;87.58
78890;BME280;68279;48.964;14.502;2023-03-19T06:32:11;96934.91;;;-0.18;86.84
78890;BME280;68279;48.964;14.502;2023-03-19T06:34:37;96945.69;;;-0.01;87.64
78890;BME280;68279;48.964;14.502;2023-03-19T06:37:02;96945.19;;;0.09;87.21
78890;BME280;68279;48.964;14.502;2023-03-19T06:39:28;96946.59;;;0.36;85.75
78890;BME280;68279;48.964;14.502;2023-03-19T06:41:53;96940.31;;;0.37;86.29
78890;BME280;68279;48.964;14.502;2023-03-19T06:44:19;96942.50;;;0.40;85.53
78890;BME280;68279;48.964;14.502;2023-03-19T06:46:44;96941.84;;;0.45;86.31
78890;BME280;68279;48.964;14.502;2023-03-19T06:49:10;96940.75;;;1.07;86.02
78890;BME280;68279;48.964;14.502;2023-03-19T06:51:36;96933.34;;;1.16;86.00
78890;BME280;68279;48.964;14.502;2023-03-19T06:54:01;96937.00;;;1.15;84.95
78890;BME280;68279;48.964;14.502;2023-03-19T06:56:28;96941.25;;;1.16;84.00
78890;BME280;68279;48.964;14.502;2023-03-19T06:58:54;96941.41;;;1.03;83.49
78890;BME280;68279;48.964;14.502;2023-03-19T07:01:19;96947.41;;;1.10;85.42
78890;BME280;68279;48.964;14.502;2023-03-19T07:03:47;96944.91;;;1.15;83.88
78890;BME280;68279;48.964;14.502;2023-03-19T07:06:12;96955.72;;;1.67;82.74
78890;BME280;68279;48.964;14.502;2023-03-19T07:08:40;96948.38;;;1.57;81.35
78890;BME280;68279;48.964;14.502;2023-03-19T07:11:11;96952.84;;;2.10;79.91
78890;BME280;68279;48.964;14.502;2023-03-19T07:13:37;96955.84;;;2.61;77.63
78890;BME280;68279;48.964;14.502;2023-03-19T07:16:02;96951.84;;;2.23;78.22
78890;BME280;68279;48.964;14.502;2023-03-19T07:18:38;96950.69;;;2.31;78.54
78890;BME280;68279;48.964;14.502;2023-03-19T07:21:31;96956.78;;;2.31;78.64
78890;BME280;68279;48.964;14.502;2023-03-19T07:24:03;96959.34;;;2.90;76.90
78890;BME280;68279;48.964;14.502;2023-03-19T07:26:38;96968.88;;;3.02;73.95
78890;BME280;68279;48.964;14.502;2023-03-19T07:29:06;96976.81;;;3.71;74.30
78890;BME280;68279;48.964;14.502;2023-03-19T07:31:32;96967.69;;;3.95;71.55
78890;BME280;68279;48.964;14.502;2023-03-19T07:33:57;96962.16;;;4.14;69.23
78890;BME280;68279;48.964;14.502;2023-03-19T07:36:23;96962.66;;;4.28;69.14
78890;BME280;68279;48.964;14.502;2023-03-19T07:38:53;96950.09;;;4.57;69.60
78890;BME280;68279;48.964;14.502;2023-03-19T07:41:18;96953.97;;;4.88;67.32
78890;BME280;68279;48.964;14.502;2023-03-19T07:43:46;96944.97;;;5.32;64.77
78890;BME280;68279;48.964;14.502;2023-03-19T07:46:11;96957.88;;;5.24;65.54
78890;BME280;68279;48.964;14.502;2023-03-19T07:48:39;96952.63;;;5.56;65.74
78890;BME280;68279;48.964;14.502;2023-03-19T07:51:06;96954.13;;;5.74;64.44
78890;BME280;68279;48.964;14.502;2023-03-19T07:53:39;96963.44;;;4.83;68.46
78890;BME280;68279;48.964;14.502;2023-03-19T07:56:05;96967.56;;;4.74;69.28
78890;BME280;68279;48.964;14.502;2023-03-19T07:58:33;96971.09;;;4.80;69.22
78890;BME280;68279;48.964;14.502;2023-03-19T08:00:59;96969.28;;;4.86;66.89
78890;BME280;68279;48.964;14.502;2023-03-19T08:03:45;96972.44;;;4.82;66.18
78890;BME280;68279;48.964;14.502;2023-03-19T08:06:14;96968.38;;;4.75;67.74
78890;BME280;68279;48.964;14.502;2023-03-19T08:08:46;96969.56;;;5.28;65.87
78890;BME280;68279;48.964;14.502;2023-03-19T08:11:17;96958.81;;;5.61;66.31
78890;BME280;68279;48.964;14.502;2023-03-19T08:13:43;96959.66;;;5.67;64.72
78890;BME280;68279;48.964;14.502;2023-03-19T08:16:13;96965.06;;;5.28;63.58
78890;BME280;68279;48.964;14.502;2023-03-19T08:18:38;96967.16;;;5.48;64.82
78890;BME280;68279;48.964;14.502;2023-03-19T08:21:06;96968.88;;;5.59;65.11
78890;BME280;68279;48.964;14.502;2023-03-19T08:23:34;96963.63;;;6.61;61.01
78890;BME280;68279;48.964;14.502;2023-03-19T08:26:00;96962.38;;;5.99;61.98
78890;BME280;68279;48.964;14.502;2023-03-19T08:28:31;96963.75;;;5.80;63.37
78890;BME280;68279;48.964;14.502;2023-03-19T08:31:09;96960.84;;;5.54;61.69
78890;BME280;68279;48.964;14.502;2023-03-19T08:33:35;96957.34;;;6.35;61.23
78890;BME280;68279;48.964;14.502;2023-03-19T08:36:12;96965.97;;;5.88;63.25
78890;BME280;68279;48.964;14.502;2023-03-19T08:38:38;96964.81;;;6.38;59.38
78890;BME280;68279;48.964;14.502;2023-03-19T08:41:04;96963.88;;;6.54;59.71
78890;BME280;68279;48.964;14.502;2023-03-19T08:43:33;96969.47;;;6.20;60.19
78890;BME280;68279;48.964;14.502;2023-03-19T08:45:59;96970.16;;;6.85;58.70
78890;BME280;68279;48.964;14.502;2023-03-19T08:48:42;96974.53;;;6.59;58.80
78890;BME280;68279;48.964;14.502;2023-03-19T08:51:15;96972.84;;;7.43;56.66
78890;BME280;68279;48.964;14.502;2023-03-19T08:53:59;96978.47;;;7.66;55.12
78890;BME280;68279;48.964;14.502;2023-03-19T08:59:01;96976.56;;;7.47;56.05
78890;BME280;68279;48.964;14.502;2023-03-19T09:01:32;96977.38;;;7.47;55.66
78890;BME280;68279;48.964;14.502;2023-03-19T09:04:04;96980.41;;;8.02;55.98
78890;BME280;68279;48.964;14.502;2023-03-19T09:06:35;96999.25;;;7.64;54.52
78890;BME280;68279;48.964;14.502;2023-03-19T09:09:05;97010.69;;;7.02;55.78
78890;BME280;68279;48.964;14.502;2023-03-19T09:11:31;97000.31;;;7.63;54.68
78890;BME280;68279;48.964;14.502;2023-03-19T09:13:59;96995.09;;;8.30;54.97
78890;BME280;68279;48.964;14.502;2023-03-19T09:16:30;97000.59;;;9.30;51.67
78890;BME280;68279;48.964;14.502;2023-03-19T09:19:08;96997.53;;;9.57;50.37
78890;BME280;68279;48.964;14.502;2023-03-19T09:21:40;96994.13;;;9.36;51.23
78890;BME280;68279;48.964;14.502;2023-03-19T09:24:13;96987.94;;;9.56;51.43
78890;BME280;68279;48.964;14.502;2023-03-19T09:26:41;96984.88;;;9.83;49.88
78890;BME280;68279;48.964;14.502;2023-03-19T09:29:07;96978.19;;;9.80;48.22
78890;BME280;68279;48.964;14.502;2023-03-19T09:31:33;96982.91;;;10.38;50.33
78890;BME280;68279;48.964;14.502;2023-03-19T09:33:59;96990.25;;;10.56;49.00
78890;BME280;68279;48.964;14.502;2023-03-19T09:36:25;96999.06;;;10.17;50.65
78890;BME280;68279;48.964;14.502;2023-03-19T09:38:51;97003.63;;;9.62;49.65
78890;BME280;68279;48.964;14.502;2023-03-19T09:44:22;96992.75;;;9.98;51.21
78890;BME280;68279;48.964;14.502;2023-03-19T09:46:55;96997.06;;;9.94;49.18
78890;BME280;68279;48.964;14.502;2023-03-19T09:49:27;96989.25;;;10.08;49.76
78890;BME280;68279;48.964;14.502;2023-03-19T09:52:01;96983.06;;;10.12;47.87
78890;BME280;68279;48.964;14.502;2023-03-19T09:54:31;96989.63;;;9.86;50.93
78890;BME280;68279;48.964;14.502;2023-03-19T09:57:00;96987.78;;;9.27;50.33
78890;BME280;68279;48.964;14.502;2023-03-19T09:59:27;96984.75;;;9.98;50.00
78890;BME280;68279;48.964;14.502;2023-03-19T10:02:00;96988.38;;;11.10;47.38
78890;BME280;68279;48.964;14.502;2023-03-19T10:04:39;96985.94;;;10.21;50.13
78890;BME280;68279;48.964;14.502;2023-03-19T10:07:17;96985.63;;;11.62;47.03
78890;BME280;68279;48.964;14.502;2023-03-19T10:10:31;96985.03;;;11.66;46.20
78890;BME280;68279;48.964;14.502;2023-03-19T10:12:50;96985.13;;;11.84;47.13
78890;BME280;68279;48.964;14.502;2023-03-19T10:15:38;96976.56;;;12.85;42.40
78890;BME280;68279;48.964;14.502;2023-03-19T10:18:25;96966.13;;;12.00;46.67
78890;BME280;68279;48.964;14.502;2023-03-19T10:21:00;96976.38;;;12.82;44.86
78890;BME280;68279;48.964;14.502;2023-03-19T10:24:02;96964.53;;;14.37;41.82
78890;BME280;68279;48.964;14.502;2023-03-19T10:26:32;96965.09;;;14.26;41.45
78890;BME280;68279;48.964;14.502;2023-03-19T10:29:10;96961.84;;;13.79;40.48
78890;BME280;68279;48.964;14.502;2023-03-19T10:34:38;96971.41;;;13.02;41.39
78890;BME280;68279;48.964;14.502;2023-03-19T10:37:13;96956.31;;;12.60;42.38
78890;BME280;68279;48.964;14.502;2023-03-19T10:39:44;96957.50;;;13.14;43.63
78890;BME280;68279;48.964;14.502;2023-03-19T10:47:50;96963.97;;;14.04;42.24
78890;BME280;68279;48.964;14.502;2023-03-19T10:59:00;96954.19;;;12.11;43.71
78890;BME280;68279;48.964;14.502;2023-03-19T11:01:42;96950.91;;;13.07;42.29
78890;BME280;68279;48.964;14.502;2023-03-19T11:04:13;96946.88;;;13.86;43.72
78890;BME280;68279;48.964;14.502;2023-03-19T11:06:39;96942.28;;;14.99;38.84
78890;BME280;68279;48.964;14.502;2023-03-19T11:11:47;96946.53;;;15.31;37.70
78890;BME280;68279;48.964;14.502;2023-03-19T11:14:15;96945.00;;;14.68;36.17
78890;BME280;68279;48.964;14.502;2023-03-19T11:16:55;96947.00;;;14.17;39.22
78890;BME280;68279;48.964;14.502;2023-03-19T11:19:30;96946.00;;;15.12;35.89
78890;BME280;68279;48.964;14.502;2023-03-19T11:24:36;96940.50;;;14.86;37.57
78890;BME280;68279;48.964;14.502;2023-03-19T11:27:07;96953.31;;;15.68;36.50
78890;BME280;68279;48.964;14.502;2023-03-19T11:29:39;96944.56;;;14.52;38.62
78890;BME280;68279;48.964;14.502;2023-03-19T11:37:21;96940.13;;;13.25;38.19
78890;BME280;68279;48.964;14.502;2023-03-19T11:40:03;96943.72;;;13.84;37.78
78890;BME280;68279;48.964;14.502;2023-03-19T11:45:43;96925.91;;;16.18;34.35
78890;BME280;68279;48.964;14.502;2023-03-19T11:48:26;96922.06;;;15.67;33.94
78890;BME280;68279;48.964;14.502;2023-03-19T11:54:16;96906.53;;;15.16;35.08
78890;BME280;68279;48.964;14.502;2023-03-19T11:56:57;96896.97;;;15.01;35.96
78890;BME280;68279;48.964;14.502;2023-03-19T12:02:25;96899.06;;;15.96;32.39
78890;BME280;68279;48.964;14.502;2023-03-19T12:05:14;96894.94;;;15.90;34.46
78890;BME280;68279;48.964;14.502;2023-03-19T12:10:37;96892.59;;;17.96;31.50
78890;BME280;68279;48.964;14.502;2023-03-19T12:16:13;96889.59;;;16.80;33.71
78890;BME280;68279;48.964;14.502;2023-03-19T12:18:47;96892.13;;;17.94;36.62
78890;BME280;68279;48.964;14.502;2023-03-19T12:24:05;96893.69;;;17.24;30.38
78890;BME280;68279;48.964;14.502;2023-03-19T12:29:22;96890.09;;;17.11;32.16
78890;BME280;68279;48.964;14.502;2023-03-19T12:34:44;96889.13;;;16.69;31.96
78890;BME280;68279;48.964;14.502;2023-03-19T12:37:34;96881.63;;;16.19;33.01
78890;BME280;68279;48.964;14.502;2023-03-19T12:40:21;96889.78;;;17.42;34.28
78890;BME280;68279;48.964;14.502;2023-03-19T12:42:50;96886.34;;;18.17;31.86
78890;BME280;68279;48.964;14.502;2023-03-19T12:45:32;96891.56;;;17.59;33.80
78890;BME280;68279;48.964;14.502;2023-03-19T12:50:47;96876.25;;;17.42;31.88
78890;BME280;68279;48.964;14.502;2023-03-19T12:53:39;96871.44;;;17.48;33.32
78890;BME280;68279;48.964;14.502;2023-03-19T12:56:20;96867.84;;;18.39;31.00
78890;BME280;68279;48.964;14.502;2023-03-19T12:59:10;96861.03;;;18.66;30.38
78890;BME280;68279;48.964;14.502;2023-03-19T13:01:52;96861.97;;;19.19;30.88
78890;BME280;68279;48.964;14.502;2023-03-19T13:04:25;96862.75;;;19.08;31.19
78890;BME280;68279;48.964;14.502;2023-03-19T13:07:05;96866.03;;;18.77;29.71
78890;BME280;68279;48.964;14.502;2023-03-19T13:09:53;96871.28;;;17.23;32.98
78890;BME280;68279;48.964;14.502;2023-03-19T13:12:25;96875.22;;;16.96;38.36
78890;BME280;68279;48.964;14.502;2023-03-19T13:17:34;96869.88;;;15.98;36.69
78890;BME280;68279;48.964;14.502;2023-03-19T13:23:06;96869.22;;;16.35;35.69
78890;BME280;68279;48.964;14.502;2023-03-19T13:25:43;96872.78;;;16.57;37.12
78890;BME280;68279;48.964;14.502;2023-03-19T13:28:25;96868.13;;;16.02;37.12
78890;BME280;68279;48.964;14.502;2023-03-19T13:31:04;96870.28;;;16.98;36.30
78890;BME280;68279;48.964;14.502;2023-03-19T13:33:33;96863.81;;;17.92;34.22
78890;BME280;68279;48.964;14.502;2023-03-19T13:36:01;96869.66;;;18.15;33.19
78890;BME280;68279;48.964;14.502;2023-03-19T13:38:42;96869.78;;;16.50;34.83
78890;BME280;68279;48.964;14.502;2023-03-19T13:43:58;96868.78;;;18.23;32.17
78890;BME280;68279;48.964;14.502;2023-03-19T13:46:39;96869.38;;;17.45;34.25
78890;BME280;68279;48.964;14.502;2023-03-19T13:49:31;96863.56;;;17.34;33.98
78890;BME280;68279;48.964;14.502;2023-03-19T13:54:51;96865.44;;;15.84;37.29
78890;BME280;68279;48.964;14.502;2023-03-19T13:57:20;96856.09;;;15.99;36.96
78890;BME280;68279;48.964;14.502;2023-03-19T14:03:05;96852.06;;;17.88;34.60
78890;BME280;68279;48.964;14.502;2023-03-19T14:05:42;96852.28;;;17.82;33.75
78890;BME280;68279;48.964;14.502;2023-03-19T14:08:20;96845.72;;;16.83;35.68
78890;BME280;68279;48.964;14.502;2023-03-19T14:10:52;96841.00;;;15.72;37.26
78890;BME280;68279;48.964;14.502;2023-03-19T14:13:29;96846.47;;;16.45;37.91
78890;BME280;68279;48.964;14.502;2023-03-19T14:16:04;96835.47;;;17.77;34.52
78890;BME280;68279;48.964;14.502;2023-03-19T14:18:32;96830.50;;;17.79;34.13
78890;BME280;68279;48.964;14.502;2023-03-19T14:21:04;96833.78;;;18.51;33.70